sensor_id;sensor_type;location;lat;lon;timestamp;P1;durP1;ratioP1;P2;durP2;ratioP2
18879;SDS011;9572;52.378;13.404;2023-05-08T00:01:39;6.20;;;4.60;;
18879;SDS011;9572;52.378;13.404;2023-05-08T00:04:06;6.37;;;4.50;;
18879;SDS011;9572;52.378;13.404;2023-05-08T00:06:32;5.87;;;5.17;;
18879;SDS011;9572;52.378;13.404;2023-05-08T00:09:01;6.50;;;4.50;;
18879;SDS011;9572;52.378;13.404;2023-05-08T00:11:28;5.23;;;4.73;;
18879;SDS011;9572;52.378;13.404;2023-05-08T00:13:55;7.60;;;5.43;;
18879;SDS011;9572;52.378;13.404;2023-05-08T00:16:21;7.03;;;5.07;;
18879;SDS011;9572;52.378;13.404;2023-05-08T00:18:48;7.40;;;5.13;;
18879;SDS011;9572;52.378;13.404;2023-05-08T00:21:17;7.93;;;5.10;;
18879;SDS011;9572;52.378;13.404;2023-05-08T00:23:44;5.23;;;4.60;;
18879;SDS011;9572;52.378;13.404;2023-05-08T00:26:12;6.67;;;4.30;;
18879;SDS011;9572;52.378;13.404;2023-05-08T00:28:39;4.80;;;4.23;;
18879;SDS011;9572;52.378;13.404;2023-05-08T00:31:06;6.30;;;4.60;;
18879;SDS011;9572;52.378;13.404;2023-05-08T00:33:33;8.13;;;4.63;;
18879;SDS011;9572;52.378;13.404;2023-05-08T00:36:00;5.20;;;4.17;;
18879;SDS011;9572;52.378;13.404;2023-05-08T00:38:29;5.40;;;4.37;;
18879;SDS011;9572;52.378;13.404;2023-05-08T00:40:56;8.87;;;4.47;;
18879;SDS011;9572;52.378;13.404;2023-05-08T00:43:24;6.37;;;3.97;;
18879;SDS011;9572;52.378;13.404;2023-05-08T00:45:53;4.67;;;4.17;;
18879;SDS011;9572;52.378;13.404;2023-05-08T00:48:21;5.47;;;4.50;;
18879;SDS011;9572;52.378;13.404;2023-05-08T00:50:48;4.67;;;4.10;;
18879;SDS011;9572;52.378;13.404;2023-05-08T00:53:15;5.33;;;4.43;;
18879;SDS011;9572;52.378;13.404;2023-05-08T00:55:44;4.50;;;4.10;;
18879;SDS011;9572;52.378;13.404;2023-05-08T00:58:12;6.07;;;4.33;;
18879;SDS011;9572;52.378;13.404;2023-05-08T01:00:41;4.43;;;3.80;;
18879;SDS011;9572;52.378;13.404;2023-05-08T01:03:09;7.50;;;4.47;;
18879;SDS011;9572;52.378;13.404;2023-05-08T01:05:38;5.23;;;4.20;;
18879;SDS011;9572;52.378;13.404;2023-05-08T01:08:05;5.07;;;4.10;;
18879;SDS011;9572;52.378;13.404;2023-05-08T01:10:37;6.00;;;4.60;;
18879;SDS011;9572;52.378;13.404;2023-05-08T01:13:10;4.73;;;4.07;;
18879;SDS011;9572;52.378;13.404;2023-05-08T01:15:48;9.03;;;4.47;;
18879;SDS011;9572;52.378;13.404;2023-05-08T01:18:22;5.80;;;4.50;;
18879;SDS011;9572;52.378;13.404;2023-05-08T01:20:59;5.27;;;4.50;;
18879;SDS011;9572;52.378;13.404;2023-05-08T01:33:12;5.87;;;4.67;;
18879;SDS011;9572;52.378;13.404;2023-05-08T01:35:46;5.53;;;4.47;;
18879;SDS011;9572;52.378;13.404;2023-05-08T01:38:18;6.73;;;4.73;;
18879;SDS011;9572;52.378;13.404;2023-05-08T01:40:53;6.07;;;4.63;;
18879;SDS011;9572;52.378;13.404;2023-05-08T01:43:28;6.37;;;4.20;;
18879;SDS011;9572;52.378;13.404;2023-05-08T01:46:01;5.73;;;4.27;;
18879;SDS011;9572;52.378;13.404;2023-05-08T01:48:33;6.23;;;5.23;;
18879;SDS011;9572;52.378;13.404;2023-05-08T01:51:04;5.80;;;5.13;;
18879;SDS011;9572;52.378;13.404;2023-05-08T01:53:35;6.73;;;5.13;;
18879;SDS011;9572;52.378;13.404;2023-05-08T01:56:07;5.93;;;4.87;;
18879;SDS011;9572;52.378;13.404;2023-05-08T01:58:37;7.60;;;4.70;;
18879;SDS011;9572;52.378;13.404;2023-05-08T02:01:05;8.90;;;5.20;;
18879;SDS011;9572;52.378;13.404;2023-05-08T02:03:34;8.10;;;5.20;;
18879;SDS011;9572;52.378;13.404;2023-05-08T02:06:02;6.50;;;4.60;;
18879;SDS011;9572;52.378;13.404;2023-05-08T02:08:30;4.93;;;4.40;;
18879;SDS011;9572;52.378;13.404;2023-05-08T02:10:58;6.20;;;4.80;;
18879;SDS011;9572;52.378;13.404;2023-05-08T02:13:27;6.43;;;5.30;;
18879;SDS011;9572;52.378;13.404;2023-05-08T02:15:56;8.30;;;5.40;;
18879;SDS011;9572;52.378;13.404;2023-05-08T02:18:25;7.17;;;4.97;;
18879;SDS011;9572;52.378;13.404;2023-05-08T02:20:56;7.13;;;5.43;;
18879;SDS011;9572;52.378;13.404;2023-05-08T02:23:25;9.77;;;5.23;;
18879;SDS011;9572;52.378;13.404;2023-05-08T02:25:53;8.43;;;5.47;;
18879;SDS011;9572;52.378;13.404;2023-05-08T02:28:21;7.37;;;5.17;;
18879;SDS011;9572;52.378;13.404;2023-05-08T02:30:49;7.30;;;5.47;;
18879;SDS011;9572;52.378;13.404;2023-05-08T02:33:17;7.53;;;5.33;;
18879;SDS011;9572;52.378;13.404;2023-05-08T02:35:45;7.17;;;5.73;;
18879;SDS011;9572;52.378;13.404;2023-05-08T02:38:16;8.50;;;5.40;;
18879;SDS011;9572;52.378;13.404;2023-05-08T02:40:45;7.83;;;5.43;;
18879;SDS011;9572;52.378;13.404;2023-05-08T02:43:14;7.07;;;5.27;;
18879;SDS011;9572;52.378;13.404;2023-05-08T02:45:44;8.33;;;5.70;;
18879;SDS011;9572;52.378;13.404;2023-05-08T02:48:17;7.50;;;5.90;;
18879;SDS011;9572;52.378;13.404;2023-05-08T02:50:50;5.63;;;4.70;;
18879;SDS011;9572;52.378;13.404;2023-05-08T02:53:30;6.93;;;5.33;;
18879;SDS011;9572;52.378;13.404;2023-05-08T02:56:02;7.43;;;5.00;;
18879;SDS011;9572;52.378;13.404;2023-05-08T02:58:36;8.70;;;5.20;;
18879;SDS011;9572;52.378;13.404;2023-05-08T03:01:11;8.27;;;5.33;;
18879;SDS011;9572;52.378;13.404;2023-05-08T03:03:48;8.00;;;5.93;;
18879;SDS011;9572;52.378;13.404;2023-05-08T03:06:20;6.80;;;5.60;;
18879;SDS011;9572;52.378;13.404;2023-05-08T03:08:52;10.43;;;5.80;;
18879;SDS011;9572;52.378;13.404;2023-05-08T03:11:27;8.67;;;5.67;;
18879;SDS011;9572;52.378;13.404;2023-05-08T03:14:04;7.43;;;5.90;;
18879;SDS011;9572;52.378;13.404;2023-05-08T03:16:35;6.43;;;5.73;;
18879;SDS011;9572;52.378;13.404;2023-05-08T03:19:04;9.37;;;6.20;;
18879;SDS011;9572;52.378;13.404;2023-05-08T03:21:35;8.70;;;5.90;;
18879;SDS011;9572;52.378;13.404;2023-05-08T03:24:07;9.00;;;6.27;;
18879;SDS011;9572;52.378;13.404;2023-05-08T03:26:35;8.43;;;5.73;;
18879;SDS011;9572;52.378;13.404;2023-05-08T03:29:02;10.97;;;6.43;;
18879;SDS011;9572;52.378;13.404;2023-05-08T03:31:31;7.53;;;6.00;;
18879;SDS011;9572;52.378;13.404;2023-05-08T03:33:59;8.77;;;6.47;;
18879;SDS011;9572;52.378;13.404;2023-05-08T03:36:27;9.50;;;6.07;;
18879;SDS011;9572;52.378;13.404;2023-05-08T03:38:55;8.37;;;5.80;;
18879;SDS011;9572;52.378;13.404;2023-05-08T03:41:24;8.60;;;6.47;;
18879;SDS011;9572;52.378;13.404;2023-05-08T03:43:51;8.83;;;5.67;;
18879;SDS011;9572;52.378;13.404;2023-05-08T03:46:18;8.87;;;6.47;;
18879;SDS011;9572;52.378;13.404;2023-05-08T03:48:46;9.40;;;6.50;;
18879;SDS011;9572;52.378;13.404;2023-05-08T03:51:15;8.03;;;5.90;;
18879;SDS011;9572;52.378;13.404;2023-05-08T03:53:44;8.47;;;6.30;;
18879;SDS011;9572;52.378;13.404;2023-05-08T03:56:11;8.17;;;5.87;;
18879;SDS011;9572;52.378;13.404;2023-05-08T03:58:40;12.27;;;6.77;;
18879;SDS011;9572;52.378;13.404;2023-05-08T04:01:17;10.40;;;6.43;;
18879;SDS011;9572;52.378;13.404;2023-05-08T04:03:53;10.50;;;7.10;;
18879;SDS011;9572;52.378;13.404;2023-05-08T04:06:27;12.00;;;6.73;;
18879;SDS011;9572;52.378;13.404;2023-05-08T04:09:01;8.87;;;6.40;;
18879;SDS011;9572;52.378;13.404;2023-05-08T04:11:34;12.77;;;7.47;;
18879;SDS011;9572;52.378;13.404;2023-05-08T04:14:09;7.97;;;6.97;;
18879;SDS011;9572;52.378;13.404;2023-05-08T04:16:43;10.63;;;7.10;;
18879;SDS011;9572;52.378;13.404;2023-05-08T04:19:14;10.30;;;7.10;;
18879;SDS011;9572;52.378;13.404;2023-05-08T04:21:44;10.30;;;7.43;;
18879;SDS011;9572;52.378;13.404;2023-05-08T04:24:13;11.50;;;7.43;;
18879;SDS011;9572;52.378;13.404;2023-05-08T04:26:42;10.10;;;7.43;;
18879;SDS011;9572;52.378;13.404;2023-05-08T04:29:12;9.90;;;7.10;;
18879;SDS011;9572;52.378;13.404;2023-05-08T04:31:39;10.83;;;7.60;;
18879;SDS011;9572;52.378;13.404;2023-05-08T04:34:07;12.17;;;7.00;;
18879;SDS011;9572;52.378;13.404;2023-05-08T04:36:35;9.47;;;7.33;;
18879;SDS011;9572;52.378;13.404;2023-05-08T04:39:02;9.63;;;6.90;;
18879;SDS011;9572;52.378;13.404;2023-05-08T04:41:29;10.03;;;7.37;;
18879;SDS011;9572;52.378;13.404;2023-05-08T04:43:56;10.33;;;7.03;;
18879;SDS011;9572;52.378;13.404;2023-05-08T04:46:24;15.37;;;7.17;;
18879;SDS011;9572;52.378;13.404;2023-05-08T04:48:51;13.10;;;7.67;;
18879;SDS011;9572;52.378;13.404;2023-05-08T04:51:18;9.57;;;6.93;;
18879;SDS011;9572;52.378;13.404;2023-05-08T04:53:45;18.47;;;7.63;;
18879;SDS011;9572;52.378;13.404;2023-05-08T04:56:12;11.53;;;7.90;;
18879;SDS011;9572;52.378;13.404;2023-05-08T04:58:39;12.07;;;7.80;;
18879;SDS011;9572;52.378;13.404;2023-05-08T05:01:06;11.57;;;7.10;;
18879;SDS011;9572;52.378;13.404;2023-05-08T05:03:35;11.23;;;7.20;;
18879;SDS011;9572;52.378;13.404;2023-05-08T05:06:02;10.10;;;7.07;;
18879;SDS011;9572;52.378;13.404;2023-05-08T05:08:29;14.57;;;6.77;;
18879;SDS011;9572;52.378;13.404;2023-05-08T05:10:56;9.47;;;6.43;;
18879;SDS011;9572;52.378;13.404;2023-05-08T05:13:23;8.40;;;6.63;;
18879;SDS011;9572;52.378;13.404;2023-05-08T05:15:50;9.27;;;6.80;;
18879;SDS011;9572;52.378;13.404;2023-05-08T05:18:18;7.83;;;6.17;;
18879;SDS011;9572;52.378;13.404;2023-05-08T05:20:46;9.67;;;6.20;;
18879;SDS011;9572;52.378;13.404;2023-05-08T05:23:13;8.97;;;6.10;;
18879;SDS011;9572;52.378;13.404;2023-05-08T05:25:40;8.33;;;6.50;;
18879;SDS011;9572;52.378;13.404;2023-05-08T05:28:07;8.30;;;6.17;;
18879;SDS011;9572;52.378;13.404;2023-05-08T05:30:34;8.53;;;6.13;;
18879;SDS011;9572;52.378;13.404;2023-05-08T05:33:01;8.60;;;5.53;;
18879;SDS011;9572;52.378;13.404;2023-05-08T05:35:28;6.80;;;5.10;;
18879;SDS011;9572;52.378;13.404;2023-05-08T05:37:56;5.77;;;4.80;;
18879;SDS011;9572;52.378;13.404;2023-05-08T05:40:23;7.57;;;4.20;;
18879;SDS011;9572;52.378;13.404;2023-05-08T05:42:50;6.03;;;3.93;;
18879;SDS011;9572;52.378;13.404;2023-05-08T05:45:17;8.87;;;4.70;;
18879;SDS011;9572;52.378;13.404;2023-05-08T05:47:44;4.97;;;4.00;;
18879;SDS011;9572;52.378;13.404;2023-05-08T05:50:14;5.73;;;4.10;;
18879;SDS011;9572;52.378;13.404;2023-05-08T05:52:42;4.40;;;4.00;;
18879;SDS011;9572;52.378;13.404;2023-05-08T05:55:10;4.80;;;3.77;;
18879;SDS011;9572;52.378;13.404;2023-05-08T05:57:37;5.13;;;4.13;;
18879;SDS011;9572;52.378;13.404;2023-05-08T06:00:05;7.23;;;4.30;;
18879;SDS011;9572;52.378;13.404;2023-05-08T06:02:34;8.73;;;4.37;;
18879;SDS011;9572;52.378;13.404;2023-05-08T06:05:01;5.13;;;3.80;;
18879;SDS011;9572;52.378;13.404;2023-05-08T06:07:29;7.33;;;4.20;;
18879;SDS011;9572;52.378;13.404;2023-05-08T06:09:55;5.43;;;4.00;;
18879;SDS011;9572;52.378;13.404;2023-05-08T06:12:24;5.67;;;4.03;;
18879;SDS011;9572;52.378;13.404;2023-05-08T06:14:52;7.97;;;3.97;;
18879;SDS011;9572;52.378;13.404;2023-05-08T06:17:19;7.03;;;3.93;;
18879;SDS011;9572;52.378;13.404;2023-05-08T06:19:47;7.73;;;3.77;;
18879;SDS011;9572;52.378;13.404;2023-05-08T06:22:14;5.10;;;3.50;;
18879;SDS011;9572;52.378;13.404;2023-05-08T06:24:42;4.23;;;3.63;;
18879;SDS011;9572;52.378;13.404;2023-05-08T06:27:09;5.67;;;3.53;;
18879;SDS011;9572;52.378;13.404;2023-05-08T06:29:38;4.20;;;3.30;;
18879;SDS011;9572;52.378;13.404;2023-05-08T06:32:05;5.07;;;3.43;;
18879;SDS011;9572;52.378;13.404;2023-05-08T06:34:32;6.93;;;3.13;;
18879;SDS011;9572;52.378;13.404;2023-05-08T06:36:59;3.85;;;3.25;;
18879;SDS011;9572;52.378;13.404;2023-05-08T06:39:25;4.18;;;3.38;;
18879;SDS011;9572;52.378;13.404;2023-05-08T06:41:52;5.60;;;3.20;;
18879;SDS011;9572;52.378;13.404;2023-05-08T06:44:19;4.17;;;2.80;;
18879;SDS011;9572;52.378;13.404;2023-05-08T06:46:48;4.83;;;3.23;;
18879;SDS011;9572;52.378;13.404;2023-05-08T06:49:14;3.55;;;2.78;;
18879;SDS011;9572;52.378;13.404;2023-05-08T06:51:41;4.43;;;2.88;;
18879;SDS011;9572;52.378;13.404;2023-05-08T06:54:09;3.65;;;2.30;;
18879;SDS011;9572;52.378;13.404;2023-05-08T06:56:36;4.05;;;3.22;;
18879;SDS011;9572;52.378;13.404;2023-05-08T06:59:03;3.70;;;2.92;;
18879;SDS011;9572;52.378;13.404;2023-05-08T07:01:30;3.33;;;2.50;;
18879;SDS011;9572;52.378;13.404;2023-05-08T07:03:59;3.28;;;2.63;;
18879;SDS011;9572;52.378;13.404;2023-05-08T07:06:25;8.02;;;2.63;;
18879;SDS011;9572;52.378;13.404;2023-05-08T07:08:52;4.65;;;2.33;;
18879;SDS011;9572;52.378;13.404;2023-05-08T07:11:19;3.17;;;2.50;;
18879;SDS011;9572;52.378;13.404;2023-05-08T07:13:46;2.60;;;2.25;;
18879;SDS011;9572;52.378;13.404;2023-05-08T07:16:13;2.58;;;2.38;;
18879;SDS011;9572;52.378;13.404;2023-05-08T07:18:40;3.85;;;2.75;;
18879;SDS011;9572;52.378;13.404;2023-05-08T07:21:09;3.35;;;2.47;;
18879;SDS011;9572;52.378;13.404;2023-05-08T07:23:36;3.92;;;1.90;;
18879;SDS011;9572;52.378;13.404;2023-05-08T07:26:03;3.70;;;1.98;;
18879;SDS011;9572;52.378;13.404;2023-05-08T07:28:30;4.15;;;2.40;;
18879;SDS011;9572;52.378;13.404;2023-05-08T07:30:56;4.38;;;2.00;;
18879;SDS011;9572;52.378;13.404;2023-05-08T07:33:23;2.35;;;2.10;;
18879;SDS011;9572;52.378;13.404;2023-05-08T07:35:50;2.70;;;2.00;;
18879;SDS011;9572;52.378;13.404;2023-05-08T07:38:19;1.80;;;1.70;;
18879;SDS011;9572;52.378;13.404;2023-05-08T07:40:46;2.85;;;2.42;;
18879;SDS011;9572;52.378;13.404;2023-05-08T07:43:13;2.20;;;1.85;;
18879;SDS011;9572;52.378;13.404;2023-05-08T07:45:40;4.18;;;2.45;;
18879;SDS011;9572;52.378;13.404;2023-05-08T07:48:07;3.83;;;1.65;;
18879;SDS011;9572;52.378;13.404;2023-05-08T07:50:34;2.40;;;2.20;;
18879;SDS011;9572;52.378;13.404;2023-05-08T07:53:01;3.45;;;1.88;;
18879;SDS011;9572;52.378;13.404;2023-05-08T07:55:29;6.28;;;2.05;;
18879;SDS011;9572;52.378;13.404;2023-05-08T07:57:56;3.78;;;2.33;;
18879;SDS011;9572;52.378;13.404;2023-05-08T08:00:23;12.20;;;6.18;;
18879;SDS011;9572;52.378;13.404;2023-05-08T08:02:51;3.63;;;2.13;;
18879;SDS011;9572;52.378;13.404;2023-05-08T08:05:18;2.42;;;1.90;;
18879;SDS011;9572;52.378;13.404;2023-05-08T08:07:45;3.28;;;1.98;;
18879;SDS011;9572;52.378;13.404;2023-05-08T08:10:12;2.30;;;1.80;;
18879;SDS011;9572;52.378;13.404;2023-05-08T08:12:40;6.70;;;1.77;;
18879;SDS011;9572;52.378;13.404;2023-05-08T08:15:07;3.30;;;1.60;;
18879;SDS011;9572;52.378;13.404;2023-05-08T08:17:35;4.05;;;1.95;;
18879;SDS011;9572;52.378;13.404;2023-05-08T08:20:02;5.45;;;1.73;;
18879;SDS011;9572;52.378;13.404;2023-05-08T08:22:29;4.53;;;2.08;;
18879;SDS011;9572;52.378;13.404;2023-05-08T08:24:56;3.75;;;1.83;;
18879;SDS011;9572;52.378;13.404;2023-05-08T08:27:22;3.88;;;2.00;;
18879;SDS011;9572;52.378;13.404;2023-05-08T08:29:51;3.88;;;1.70;;
18879;SDS011;9572;52.378;13.404;2023-05-08T08:32:18;2.08;;;1.73;;
18879;SDS011;9572;52.378;13.404;2023-05-08T08:34:45;3.60;;;1.98;;
18879;SDS011;9572;52.378;13.404;2023-05-08T08:37:11;2.15;;;1.70;;
18879;SDS011;9572;52.378;13.404;2023-05-08T08:39:38;4.10;;;1.67;;
18879;SDS011;9572;52.378;13.404;2023-05-08T08:42:05;2.67;;;1.90;;
18879;SDS011;9572;52.378;13.404;2023-05-08T08:44:33;2.40;;;2.20;;
18879;SDS011;9572;52.378;13.404;2023-05-08T08:47:01;7.10;;;2.00;;
18879;SDS011;9572;52.378;13.404;2023-05-08T08:49:30;3.70;;;1.80;;
18879;SDS011;9572;52.378;13.404;2023-05-08T08:52:01;4.22;;;2.10;;
18879;SDS011;9572;52.378;13.404;2023-05-08T08:54:32;3.33;;;1.67;;
18879;SDS011;9572;52.378;13.404;2023-05-08T08:57:00;5.63;;;2.05;;
18879;SDS011;9572;52.378;13.404;2023-05-08T08:59:32;2.17;;;1.55;;
18879;SDS011;9572;52.378;13.404;2023-05-08T09:02:04;2.83;;;1.90;;
18879;SDS011;9572;52.378;13.404;2023-05-08T09:04:34;3.70;;;1.70;;
18879;SDS011;9572;52.378;13.404;2023-05-08T09:07:01;2.58;;;2.00;;
18879;SDS011;9572;52.378;13.404;2023-05-08T09:09:29;3.30;;;1.88;;
18879;SDS011;9572;52.378;13.404;2023-05-08T09:11:57;2.42;;;1.80;;
18879;SDS011;9572;52.378;13.404;2023-05-08T09:14:24;3.80;;;1.60;;
18879;SDS011;9572;52.378;13.404;2023-05-08T09:16:52;2.80;;;1.80;;
18879;SDS011;9572;52.378;13.404;2023-05-08T09:19:20;2.78;;;1.80;;
18879;SDS011;9572;52.378;13.404;2023-05-08T09:21:48;4.47;;;1.60;;
18879;SDS011;9572;52.378;13.404;2023-05-08T09:24:15;3.17;;;1.70;;
18879;SDS011;9572;52.378;13.404;2023-05-08T09:26:42;5.60;;;1.67;;
18879;SDS011;9572;52.378;13.404;2023-05-08T09:29:12;4.85;;;1.90;;
18879;SDS011;9572;52.378;13.404;2023-05-08T09:31:40;6.50;;;2.08;;
18879;SDS011;9572;52.378;13.404;2023-05-08T09:34:09;9.45;;;2.10;;
18879;SDS011;9572;52.378;13.404;2023-05-08T09:36:38;3.88;;;1.80;;
18879;SDS011;9572;52.378;13.404;2023-05-08T09:39:09;3.63;;;1.77;;
18879;SDS011;9572;52.378;13.404;2023-05-08T09:41:38;3.35;;;1.67;;
18879;SDS011;9572;52.378;13.404;2023-05-08T09:44:05;1.88;;;1.70;;
18879;SDS011;9572;52.378;13.404;2023-05-08T09:46:33;3.05;;;1.90;;
18879;SDS011;9572;52.378;13.404;2023-05-08T09:49:01;2.60;;;1.73;;
18879;SDS011;9572;52.378;13.404;2023-05-08T09:51:29;4.95;;;1.70;;
18879;SDS011;9572;52.378;13.404;2023-05-08T09:53:58;2.92;;;1.52;;
18879;SDS011;9572;52.378;13.404;2023-05-08T09:56:32;2.92;;;1.92;;
18879;SDS011;9572;52.378;13.404;2023-05-08T09:59:00;2.45;;;1.73;;
18879;SDS011;9572;52.378;13.404;2023-05-08T10:01:29;3.17;;;1.58;;
18879;SDS011;9572;52.378;13.404;2023-05-08T10:03:57;5.07;;;1.60;;
18879;SDS011;9572;52.378;13.404;2023-05-08T10:06:25;5.68;;;3.45;;
18879;SDS011;9572;52.378;13.404;2023-05-08T10:09:10;2.08;;;1.77;;
18879;SDS011;9572;52.378;13.404;2023-05-08T10:11:38;2.38;;;1.58;;
18879;SDS011;9572;52.378;13.404;2023-05-08T10:14:06;2.40;;;1.75;;
18879;SDS011;9572;52.378;13.404;2023-05-08T10:16:35;2.83;;;1.65;;
18879;SDS011;9572;52.378;13.404;2023-05-08T10:19:08;2.00;;;1.80;;
18879;SDS011;9572;52.378;13.404;2023-05-08T10:21:40;9.13;;;2.35;;
18879;SDS011;9572;52.378;13.404;2023-05-08T10:24:12;4.93;;;3.75;;
18879;SDS011;9572;52.378;13.404;2023-05-08T10:26:41;2.05;;;1.75;;
18879;SDS011;9572;52.378;13.404;2023-05-08T10:29:12;3.50;;;1.73;;
18879;SDS011;9572;52.378;13.404;2023-05-08T10:31:43;2.55;;;1.80;;
18879;SDS011;9572;52.378;13.404;2023-05-08T10:34:12;2.38;;;1.65;;
18879;SDS011;9572;52.378;13.404;2023-05-08T10:36:45;2.58;;;1.73;;
18879;SDS011;9572;52.378;13.404;2023-05-08T10:39:13;5.13;;;1.80;;
18879;SDS011;9572;52.378;13.404;2023-05-08T10:41:41;3.33;;;1.75;;
18879;SDS011;9572;52.378;13.404;2023-05-08T10:44:09;2.28;;;1.73;;
18879;SDS011;9572;52.378;13.404;2023-05-08T10:46:38;3.42;;;1.80;;
18879;SDS011;9572;52.378;13.404;2023-05-08T10:49:11;3.92;;;1.67;;
18879;SDS011;9572;52.378;13.404;2023-05-08T10:51:46;3.22;;;1.70;;
18879;SDS011;9572;52.378;13.404;2023-05-08T10:54:25;3.33;;;1.90;;
18879;SDS011;9572;52.378;13.404;2023-05-08T10:57:06;3.22;;;1.63;;
18879;SDS011;9572;52.378;13.404;2023-05-08T10:59:34;4.05;;;1.73;;
18879;SDS011;9572;52.378;13.404;2023-05-08T11:02:04;2.13;;;1.42;;
18879;SDS011;9572;52.378;13.404;2023-05-08T11:04:32;2.95;;;1.55;;
18879;SDS011;9572;52.378;13.404;2023-05-08T11:06:59;2.42;;;1.40;;
18879;SDS011;9572;52.378;13.404;2023-05-08T11:09:30;6.13;;;1.58;;
18879;SDS011;9572;52.378;13.404;2023-05-08T11:12:16;3.05;;;1.70;;
18879;SDS011;9572;52.378;13.404;2023-05-08T11:14:54;4.07;;;1.60;;
18879;SDS011;9572;52.378;13.404;2023-05-08T11:17:25;2.83;;;1.58;;
18879;SDS011;9572;52.378;13.404;2023-05-08T11:19:55;2.55;;;1.33;;
18879;SDS011;9572;52.378;13.404;2023-05-08T11:22:24;2.75;;;1.50;;
18879;SDS011;9572;52.378;13.404;2023-05-08T11:25:01;5.90;;;1.55;;
18879;SDS011;9572;52.378;13.404;2023-05-08T11:27:31;3.13;;;1.70;;
18879;SDS011;9572;52.378;13.404;2023-05-08T11:35:39;4.15;;;1.50;;
18879;SDS011;9572;52.378;13.404;2023-05-08T11:38:14;6.13;;;1.67;;
18879;SDS011;9572;52.378;13.404;2023-05-08T11:40:48;1.63;;;1.50;;
18879;SDS011;9572;52.378;13.404;2023-05-08T11:46:22;3.25;;;1.60;;
18879;SDS011;9572;52.378;13.404;2023-05-08T11:49:03;4.22;;;1.60;;
18879;SDS011;9572;52.378;13.404;2023-05-08T11:51:30;7.45;;;1.60;;
18879;SDS011;9572;52.378;13.404;2023-05-08T11:53:57;4.10;;;1.65;;
18879;SDS011;9572;52.378;13.404;2023-05-08T11:56:26;5.32;;;1.55;;
18879;SDS011;9572;52.378;13.404;2023-05-08T11:59:00;2.35;;;1.60;;
18879;SDS011;9572;52.378;13.404;2023-05-08T12:01:29;4.30;;;1.70;;
18879;SDS011;9572;52.378;13.404;2023-05-08T12:03:59;1.38;;;1.27;;
18879;SDS011;9572;52.378;13.404;2023-05-08T12:06:26;2.45;;;1.75;;
18879;SDS011;9572;52.378;13.404;2023-05-08T12:08:53;2.50;;;1.42;;
18879;SDS011;9572;52.378;13.404;2023-05-08T12:11:23;1.80;;;1.40;;
18879;SDS011;9572;52.378;13.404;2023-05-08T12:13:52;2.17;;;1.50;;
18879;SDS011;9572;52.378;13.404;2023-05-08T12:16:21;2.40;;;1.80;;
18879;SDS011;9572;52.378;13.404;2023-05-08T12:18:49;5.07;;;1.83;;
18879;SDS011;9572;52.378;13.404;2023-05-08T12:21:17;5.03;;;1.70;;
18879;SDS011;9572;52.378;13.404;2023-05-08T12:23:45;3.53;;;1.60;;
18879;SDS011;9572;52.378;13.404;2023-05-08T12:26:12;2.20;;;1.40;;
18879;SDS011;9572;52.378;13.404;2023-05-08T12:28:42;1.60;;;1.50;;
18879;SDS011;9572;52.378;13.404;2023-05-08T12:31:11;4.13;;;1.70;;
18879;SDS011;9572;52.378;13.404;2023-05-08T12:33:38;1.60;;;1.50;;
18879;SDS011;9572;52.378;13.404;2023-05-08T12:36:06;2.67;;;1.63;;
18879;SDS011;9572;52.378;13.404;2023-05-08T12:38:33;3.83;;;1.50;;
18879;SDS011;9572;52.378;13.404;2023-05-08T12:41:00;2.63;;;1.38;;
18879;SDS011;9572;52.378;13.404;2023-05-08T12:43:31;2.53;;;1.50;;
18879;SDS011;9572;52.378;13.404;2023-05-08T12:45:59;3.88;;;1.95;;
18879;SDS011;9572;52.378;13.404;2023-05-08T12:48:28;1.58;;;1.30;;
18879;SDS011;9572;52.378;13.404;2023-05-08T12:51:00;1.77;;;1.30;;
18879;SDS011;9572;52.378;13.404;2023-05-08T12:53:28;2.75;;;1.40;;
18879;SDS011;9572;52.378;13.404;2023-05-08T12:55:57;2.70;;;1.40;;
18879;SDS011;9572;52.378;13.404;2023-05-08T12:58:26;2.58;;;1.33;;
18879;SDS011;9572;52.378;13.404;2023-05-08T13:01:02;4.38;;;1.33;;
18879;SDS011;9572;52.378;13.404;2023-05-08T13:03:38;3.67;;;1.65;;
18879;SDS011;9572;52.378;13.404;2023-05-08T13:06:06;2.75;;;1.63;;
18879;SDS011;9572;52.378;13.404;2023-05-08T13:08:43;2.70;;;1.50;;
18879;SDS011;9572;52.378;13.404;2023-05-08T13:11:10;4.63;;;1.58;;
18879;SDS011;9572;52.378;13.404;2023-05-08T13:13:37;1.42;;;1.15;;
18879;SDS011;9572;52.378;13.404;2023-05-08T13:16:04;1.70;;;1.42;;
18879;SDS011;9572;52.378;13.404;2023-05-08T13:18:32;3.42;;;1.48;;
18879;SDS011;9572;52.378;13.404;2023-05-08T13:21:02;2.15;;;1.40;;
18879;SDS011;9572;52.378;13.404;2023-05-08T13:23:29;3.20;;;1.38;;
18879;SDS011;9572;52.378;13.404;2023-05-08T13:25:56;3.10;;;1.50;;
18879;SDS011;9572;52.378;13.404;2023-05-08T13:28:23;1.85;;;1.40;;
18879;SDS011;9572;52.378;13.404;2023-05-08T13:30:49;4.93;;;1.30;;
18879;SDS011;9572;52.378;13.404;2023-05-08T13:33:16;4.78;;;1.45;;
18879;SDS011;9572;52.378;13.404;2023-05-08T13:35:43;4.13;;;1.35;;
18879;SDS011;9572;52.378;13.404;2023-05-08T13:38:11;3.45;;;1.40;;
18879;SDS011;9572;52.378;13.404;2023-05-08T13:40:38;4.28;;;1.67;;
18879;SDS011;9572;52.378;13.404;2023-05-08T13:43:05;3.45;;;1.40;;
18879;SDS011;9572;52.378;13.404;2023-05-08T13:45:32;1.40;;;1.30;;
18879;SDS011;9572;52.378;13.404;2023-05-08T13:47:59;5.20;;;1.55;;
18879;SDS011;9572;52.378;13.404;2023-05-08T13:50:26;1.95;;;1.30;;
18879;SDS011;9572;52.378;13.404;2023-05-08T13:52:53;4.75;;;1.50;;
18879;SDS011;9572;52.378;13.404;2023-05-08T13:55:21;2.47;;;1.45;;
18879;SDS011;9572;52.378;13.404;2023-05-08T13:57:48;1.50;;;1.40;;
18879;SDS011;9572;52.378;13.404;2023-05-08T14:00:15;1.50;;;1.40;;
18879;SDS011;9572;52.378;13.404;2023-05-08T14:02:43;3.45;;;1.60;;
18879;SDS011;9572;52.378;13.404;2023-05-08T14:05:10;1.80;;;1.52;;
18879;SDS011;9572;52.378;13.404;2023-05-08T14:07:37;1.30;;;1.20;;
18879;SDS011;9572;52.378;13.404;2023-05-08T14:10:05;2.85;;;1.65;;
18879;SDS011;9572;52.378;13.404;2023-05-08T14:12:33;5.65;;;1.60;;
18879;SDS011;9572;52.378;13.404;2023-05-08T14:15:01;1.80;;;1.60;;
18879;SDS011;9572;52.378;13.404;2023-05-08T14:17:29;3.35;;;1.50;;
18879;SDS011;9572;52.378;13.404;2023-05-08T14:19:55;3.72;;;1.92;;
18879;SDS011;9572;52.378;13.404;2023-05-08T14:22:23;6.10;;;1.45;;
18879;SDS011;9572;52.378;13.404;2023-05-08T14:24:50;3.58;;;1.33;;
18879;SDS011;9572;52.378;13.404;2023-05-08T14:27:17;2.63;;;1.50;;
18879;SDS011;9572;52.378;13.404;2023-05-08T14:29:45;2.08;;;1.63;;
18879;SDS011;9572;52.378;13.404;2023-05-08T14:32:12;3.65;;;1.60;;
18879;SDS011;9572;52.378;13.404;2023-05-08T14:34:39;2.38;;;1.48;;
18879;SDS011;9572;52.378;13.404;2023-05-08T14:37:06;4.50;;;1.35;;
18879;SDS011;9572;52.378;13.404;2023-05-08T14:39:33;2.00;;;1.42;;
18879;SDS011;9572;52.378;13.404;2023-05-08T14:42:00;2.20;;;1.40;;
18879;SDS011;9572;52.378;13.404;2023-05-08T14:44:27;4.70;;;1.73;;
18879;SDS011;9572;52.378;13.404;2023-05-08T14:46:55;6.30;;;1.60;;
18879;SDS011;9572;52.378;13.404;2023-05-08T14:49:22;3.17;;;1.50;;
18879;SDS011;9572;52.378;13.404;2023-05-08T14:51:49;4.00;;;1.65;;
18879;SDS011;9572;52.378;13.404;2023-05-08T14:54:16;7.07;;;1.70;;
18879;SDS011;9572;52.378;13.404;2023-05-08T14:56:43;1.50;;;1.40;;
18879;SDS011;9572;52.378;13.404;2023-05-08T14:59:10;2.15;;;1.80;;
18879;SDS011;9572;52.378;13.404;2023-05-08T15:01:37;1.85;;;1.60;;
18879;SDS011;9572;52.378;13.404;2023-05-08T15:04:08;1.83;;;1.60;;
18879;SDS011;9572;52.378;13.404;2023-05-08T15:06:35;2.08;;;1.50;;
18879;SDS011;9572;52.378;13.404;2023-05-08T15:09:04;4.28;;;1.25;;
18879;SDS011;9572;52.378;13.404;2023-05-08T15:11:32;4.15;;;1.70;;
18879;SDS011;9572;52.378;13.404;2023-05-08T15:13:59;2.20;;;1.60;;